sensor_id;sensor_type;location;lat;lon;timestamp;pressure;altitude;pressure_sealevel;temperature;humidity
63395;BME280;49531;-34.520;150.798;2023-11-19T00:02:08;101058.06;;;25.46;46.81
63395;BME280;49531;-34.520;150.798;2023-11-19T00:04:39;101060.75;;;25.51;47.67
63395;BME280;49531;-34.520;150.798;2023-11-19T00:07:08;101062.94;;;25.54;47.36
63395;BME280;49531;-34.520;150.798;2023-11-19T00:09:37;101055.78;;;25.58;47.84
63395;BME280;49531;-34.520;150.798;2023-11-19T00:12:06;101077.59;;;25.68;47.99
63395;BME280;49531;-34.520;150.798;2023-11-19T00:14:40;101050.00;;;25.65;48.26
63395;BME280;49531;-34.520;150.798;2023-11-19T00:17:07;101034.13;;;25.62;48.26
63395;BME280;49531;-34.520;150.798;2023-11-19T00:19:34;101035.97;;;25.71;48.21
63395;BME280;49531;-34.520;150.798;2023-11-19T00:22:01;101047.69;;;25.77;48.06
63395;BME280;49531;-34.520;150.798;2023-11-19T00:24:30;101046.78;;;25.86;48.05
63395;BME280;49531;-34.520;150.798;2023-11-19T00:26:58;101032.25;;;25.91;48.00
63395;BME280;49531;-34.520;150.798;2023-11-19T00:29:25;101040.16;;;25.92;47.96
63395;BME280;49531;-34.520;150.798;2023-11-19T00:32:00;101025.94;;;25.90;47.94
63395;BME280;49531;-34.520;150.798;2023-11-19T00:34:47;101030.81;;;25.99;47.88
63395;BME280;49531;-34.520;150.798;2023-11-19T00:37:29;101018.94;;;26.03;47.88
63395;BME280;49531;-34.520;150.798;2023-11-19T00:40:04;101015.59;;;26.11;47.90
63395;BME280;49531;-34.520;150.798;2023-11-19T00:42:54;101011.31;;;26.00;47.90
63395;BME280;49531;-34.520;150.798;2023-11-19T00:45:22;101015.06;;;26.09;47.90
63395;BME280;49531;-34.520;150.798;2023-11-19T00:47:53;101007.91;;;26.13;47.86
63395;BME280;49531;-34.520;150.798;2023-11-19T00:50:36;101015.25;;;26.18;48.06
63395;BME280;49531;-34.520;150.798;2023-11-19T00:53:16;101015.72;;;26.25;47.78
63395;BME280;49531;-34.520;150.798;2023-11-19T00:56:11;101009.72;;;26.23;47.66
63395;BME280;49531;-34.520;150.798;2023-11-19T00:59:22;101008.81;;;26.33;47.37
63395;BME280;49531;-34.520;150.798;2023-11-19T01:01:58;100999.19;;;26.35;47.16
63395;BME280;49531;-34.520;150.798;2023-11-19T01:04:56;100996.97;;;26.37;46.93
63395;BME280;49531;-34.520;150.798;2023-11-19T01:07:39;101008.53;;;26.29;47.07
63395;BME280;49531;-34.520;150.798;2023-11-19T01:10:12;100989.38;;;26.29;47.11
63395;BME280;49531;-34.520;150.798;2023-11-19T01:12:49;100990.44;;;26.33;46.66
63395;BME280;49531;-34.520;150.798;2023-11-19T01:15:21;100985.41;;;26.40;47.32
63395;BME280;49531;-34.520;150.798;2023-11-19T01:17:53;100971.34;;;26.47;47.37
63395;BME280;49531;-34.520;150.798;2023-11-19T01:20:23;100977.66;;;26.47;47.25
63395;BME280;49531;-34.520;150.798;2023-11-19T01:22:56;100976.06;;;26.41;47.12
63395;BME280;49531;-34.520;150.798;2023-11-19T01:25:33;100959.88;;;26.45;47.12
63395;BME280;49531;-34.520;150.798;2023-11-19T01:28:09;100960.03;;;26.53;46.83
63395;BME280;49531;-34.520;150.798;2023-11-19T01:30:57;100966.78;;;26.61;47.06
63395;BME280;49531;-34.520;150.798;2023-11-19T01:33:30;100964.84;;;26.62;47.15
63395;BME280;49531;-34.520;150.798;2023-11-19T01:36:03;100968.63;;;26.66;47.34
63395;BME280;49531;-34.520;150.798;2023-11-19T01:38:40;100958.78;;;26.65;46.97
63395;BME280;49531;-34.520;150.798;2023-11-19T01:41:17;100961.91;;;26.77;46.63
63395;BME280;49531;-34.520;150.798;2023-11-19T01:43:55;100953.88;;;26.80;46.34
63395;BME280;49531;-34.520;150.798;2023-11-19T01:46:29;100946.47;;;26.81;46.63
63395;BME280;49531;-34.520;150.798;2023-11-19T01:49:09;100947.47;;;26.71;46.56
63395;BME280;49531;-34.520;150.798;2023-11-19T01:51:55;100952.06;;;26.76;45.96
63395;BME280;49531;-34.520;150.798;2023-11-19T01:58:01;100947.38;;;26.76;46.28
63395;BME280;49531;-34.520;150.798;2023-11-19T02:01:08;100944.75;;;26.85;46.46
63395;BME280;49531;-34.520;150.798;2023-11-19T02:10:29;100928.31;;;26.85;46.58
63395;BME280;49531;-34.520;150.798;2023-11-19T02:12:58;100938.16;;;26.86;46.37
63395;BME280;49531;-34.520;150.798;2023-11-19T02:15:25;100951.34;;;26.84;46.79
63395;BME280;49531;-34.520;150.798;2023-11-19T02:18:23;100947.50;;;26.85;46.67
63395;BME280;49531;-34.520;150.798;2023-11-19T02:21:12;100931.06;;;26.85;46.47
63395;BME280;49531;-34.520;150.798;2023-11-19T02:24:01;100935.94;;;26.88;46.61
63395;BME280;49531;-34.520;150.798;2023-11-19T02:26:44;100929.66;;;26.87;46.69
63395;BME280;49531;-34.520;150.798;2023-11-19T02:29:20;100936.97;;;26.92;46.59
63395;BME280;49531;-34.520;150.798;2023-11-19T02:31:47;100914.75;;;26.94;46.34
63395;BME280;49531;-34.520;150.798;2023-11-19T02:34:14;100919.38;;;26.98;46.41
63395;BME280;49531;-34.520;150.798;2023-11-19T02:36:42;100919.72;;;26.91;46.38
63395;BME280;49531;-34.520;150.798;2023-11-19T02:39:12;100923.28;;;26.92;46.60
63395;BME280;49531;-34.520;150.798;2023-11-19T02:41:40;100923.22;;;26.97;46.30
63395;BME280;49531;-34.520;150.798;2023-11-19T02:44:07;100915.81;;;26.98;45.59
63395;BME280;49531;-34.520;150.798;2023-11-19T02:46:34;100912.69;;;27.04;45.27
63395;BME280;49531;-34.520;150.798;2023-11-19T02:49:01;100933.00;;;27.03;45.62
63395;BME280;49531;-34.520;150.798;2023-11-19T02:51:28;100912.25;;;26.97;45.69
63395;BME280;49531;-34.520;150.798;2023-11-19T02:53:56;100911.59;;;27.05;45.74
63395;BME280;49531;-34.520;150.798;2023-11-19T02:56:43;100907.22;;;27.04;45.69
63395;BME280;49531;-34.520;150.798;2023-11-19T02:59:14;100903.06;;;27.07;45.48
63395;BME280;49531;-34.520;150.798;2023-11-19T03:01:54;100893.19;;;27.06;45.51
63395;BME280;49531;-34.520;150.798;2023-11-19T03:04:21;100903.50;;;27.14;45.57
63395;BME280;49531;-34.520;150.798;2023-11-19T03:06:49;100908.84;;;27.05;45.73
63395;BME280;49531;-34.520;150.798;2023-11-19T03:09:16;100901.84;;;27.13;45.11
63395;BME280;49531;-34.520;150.798;2023-11-19T03:11:44;100895.34;;;27.09;45.55
63395;BME280;49531;-34.520;150.798;2023-11-19T03:14:13;100879.19;;;27.07;45.44
63395;BME280;49531;-34.520;150.798;2023-11-19T03:16:56;100880.53;;;27.10;45.35
63395;BME280;49531;-34.520;150.798;2023-11-19T03:19:27;100894.53;;;27.08;45.58
63395;BME280;49531;-34.520;150.798;2023-11-19T03:21:54;100878.59;;;27.10;45.41
63395;BME280;49531;-34.520;150.798;2023-11-19T03:24:21;100890.16;;;27.07;45.92
63395;BME280;49531;-34.520;150.798;2023-11-19T03:26:49;100866.69;;;27.01;45.76
63395;BME280;49531;-34.520;150.798;2023-11-19T03:29:19;100859.56;;;27.00;46.16
63395;BME280;49531;-34.520;150.798;2023-11-19T03:31:46;100861.53;;;27.13;46.17
63395;BME280;49531;-34.520;150.798;2023-11-19T03:34:13;100861.44;;;27.18;46.07
63395;BME280;49531;-34.520;150.798;2023-11-19T03:36:40;100870.66;;;27.22;45.91
63395;BME280;49531;-34.520;150.798;2023-11-19T03:39:25;100865.19;;;27.22;46.00
63395;BME280;49531;-34.520;150.798;2023-11-19T03:41:53;100850.56;;;27.27;46.10
63395;BME280;49531;-34.520;150.798;2023-11-19T03:44:20;100855.34;;;27.21;46.25
63395;BME280;49531;-34.520;150.798;2023-11-19T03:46:47;100851.47;;;27.22;45.95
63395;BME280;49531;-34.520;150.798;2023-11-19T03:49:15;100837.97;;;27.12;46.45
63395;BME280;49531;-34.520;150.798;2023-11-19T03:51:42;100842.66;;;27.12;46.28
63395;BME280;49531;-34.520;150.798;2023-11-19T03:54:09;100848.34;;;27.15;46.49
63395;BME280;49531;-34.520;150.798;2023-11-19T03:56:37;100851.09;;;27.15;46.63
63395;BME280;49531;-34.520;150.798;2023-11-19T03:59:05;100818.06;;;27.07;46.45
63395;BME280;49531;-34.520;150.798;2023-11-19T04:01:32;100823.97;;;27.14;47.08
63395;BME280;49531;-34.520;150.798;2023-11-19T04:03:59;100813.19;;;27.17;46.88
63395;BME280;49531;-34.520;150.798;2023-11-19T04:06:26;100833.31;;;27.27;47.24
63395;BME280;49531;-34.520;150.798;2023-11-19T04:08:53;100832.28;;;27.22;47.18
63395;BME280;49531;-34.520;150.798;2023-11-19T04:11:20;100812.69;;;27.15;46.99
63395;BME280;49531;-34.520;150.798;2023-11-19T04:13:47;100825.00;;;27.18;47.13
63395;BME280;49531;-34.520;150.798;2023-11-19T04:16:15;100817.88;;;27.17;47.27
63395;BME280;49531;-34.520;150.798;2023-11-19T04:18:42;100817.16;;;27.11;47.43
63395;BME280;49531;-34.520;150.798;2023-11-19T04:21:09;100820.91;;;27.15;47.44
63395;BME280;49531;-34.520;150.798;2023-11-19T04:23:37;100802.41;;;27.07;47.35
63395;BME280;49531;-34.520;150.798;2023-11-19T04:26:04;100809.31;;;27.05;47.63
63395;BME280;49531;-34.520;150.798;2023-11-19T04:28:33;100797.03;;;27.02;47.61
63395;BME280;49531;-34.520;150.798;2023-11-19T04:31:00;100798.34;;;27.05;47.65
63395;BME280;49531;-34.520;150.798;2023-11-19T04:33:27;100791.97;;;27.09;47.89
63395;BME280;49531;-34.520;150.798;2023-11-19T04:35:54;100784.53;;;27.10;47.73
63395;BME280;49531;-34.520;150.798;2023-11-19T04:38:21;100794.31;;;27.16;47.58
63395;BME280;49531;-34.520;150.798;2023-11-19T04:40:48;100762.00;;;26.99;47.68
63395;BME280;49531;-34.520;150.798;2023-11-19T04:43:15;100784.94;;;27.03;47.79
63395;BME280;49531;-34.520;150.798;2023-11-19T04:45:42;100785.53;;;27.00;48.09
63395;BME280;49531;-34.520;150.798;2023-11-19T04:48:09;100775.19;;;26.97;48.30
63395;BME280;49531;-34.520;150.798;2023-11-19T04:50:38;100776.50;;;27.00;48.17
63395;BME280;49531;-34.520;150.798;2023-11-19T04:53:05;100771.75;;;27.05;48.20
63395;BME280;49531;-34.520;150.798;2023-11-19T04:55:32;100777.53;;;27.04;48.39
63395;BME280;49531;-34.520;150.798;2023-11-19T04:58:00;100782.53;;;27.15;48.36
63395;BME280;49531;-34.520;150.798;2023-11-19T05:00:27;100788.63;;;27.12;48.27
63395;BME280;49531;-34.520;150.798;2023-11-19T05:02:54;100783.13;;;27.26;48.11
63395;BME280;49531;-34.520;150.798;2023-11-19T05:05:21;100777.84;;;27.30;48.10
63395;BME280;49531;-34.520;150.798;2023-11-19T05:07:48;100776.22;;;27.29;47.93
63395;BME280;49531;-34.520;150.798;2023-11-19T05:10:15;100762.28;;;27.25;47.72
63395;BME280;49531;-34.520;150.798;2023-11-19T05:12:42;100771.75;;;27.33;47.86
63395;BME280;49531;-34.520;150.798;2023-11-19T05:15:10;100769.31;;;27.31;47.48
63395;BME280;49531;-34.520;150.798;2023-11-19T05:17:38;100754.28;;;27.29;47.50
63395;BME280;49531;-34.520;150.798;2023-11-19T05:20:06;100753.66;;;27.32;47.43
63395;BME280;49531;-34.520;150.798;2023-11-19T05:22:42;100753.34;;;27.33;47.02
63395;BME280;49531;-34.520;150.798;2023-11-19T05:25:10;100744.31;;;27.33;46.85
63395;BME280;49531;-34.520;150.798;2023-11-19T05:27:37;100753.25;;;27.24;47.23
63395;BME280;49531;-34.520;150.798;2023-11-19T05:30:05;100743.69;;;27.22;47.51
63395;BME280;49531;-34.520;150.798;2023-11-19T05:32:37;100754.97;;;27.20;47.59
63395;BME280;49531;-34.520;150.798;2023-11-19T05:35:04;100741.16;;;27.26;47.77
63395;BME280;49531;-34.520;150.798;2023-11-19T05:37:31;100748.28;;;27.27;47.37
63395;BME280;49531;-34.520;150.798;2023-11-19T05:40:03;100745.31;;;27.23;47.62
63395;BME280;49531;-34.520;150.798;2023-11-19T05:42:33;100748.56;;;27.25;47.59
63395;BME280;49531;-34.520;150.798;2023-11-19T05:45:00;100732.56;;;27.18;47.66
63395;BME280;49531;-34.520;150.798;2023-11-19T05:47:27;100725.63;;;27.21;47.99
63395;BME280;49531;-34.520;150.798;2023-11-19T05:49:54;100728.88;;;27.23;48.00
63395;BME280;49531;-34.520;150.798;2023-11-19T05:52:21;100723.00;;;27.16;48.01
63395;BME280;49531;-34.520;150.798;2023-11-19T05:54:49;100715.91;;;27.15;48.34
63395;BME280;49531;-34.520;150.798;2023-11-19T05:57:18;100716.22;;;27.13;48.22
63395;BME280;49531;-34.520;150.798;2023-11-19T05:59:51;100723.63;;;27.13;48.45
63395;BME280;49531;-34.520;150.798;2023-11-19T06:02:19;100717.13;;;27.09;48.22
63395;BME280;49531;-34.520;150.798;2023-11-19T06:04:46;100720.16;;;27.07;48.24
63395;BME280;49531;-34.520;150.798;2023-11-19T06:07:14;100725.44;;;27.04;48.21
63395;BME280;49531;-34.520;150.798;2023-11-19T06:09:41;100718.63;;;27.01;48.21
63395;BME280;49531;-34.520;150.798;2023-11-19T06:12:08;100712.03;;;27.02;48.44
63395;BME280;49531;-34.520;150.798;2023-11-19T06:14:35;100711.44;;;27.05;48.26
63395;BME280;49531;-34.520;150.798;2023-11-19T06:17:03;100705.75;;;27.02;48.13
63395;BME280;49531;-34.520;150.798;2023-11-19T06:19:31;100711.44;;;27.05;47.98
63395;BME280;49531;-34.520;150.798;2023-11-19T06:21:59;100695.59;;;27.02;48.38
63395;BME280;49531;-34.520;150.798;2023-11-19T06:24:26;100723.00;;;27.02;48.28
63395;BME280;49531;-34.520;150.798;2023-11-19T06:26:53;100707.16;;;26.99;48.26
63395;BME280;49531;-34.520;150.798;2023-11-19T06:29:20;100703.41;;;27.09;48.13
63395;BME280;49531;-34.520;150.798;2023-11-19T06:31:47;100714.06;;;27.10;48.09
63395;BME280;49531;-34.520;150.798;2023-11-19T06:34:15;100717.22;;;27.17;48.02
63395;BME280;49531;-34.520;150.798;2023-11-19T06:36:42;100716.09;;;27.18;48.00
63395;BME280;49531;-34.520;150.798;2023-11-19T06:39:12;100712.22;;;27.19;48.04
63395;BME280;49531;-34.520;150.798;2023-11-19T06:41:40;100707.25;;;27.21;47.97
63395;BME280;49531;-34.520;150.798;2023-11-19T06:44:10;100714.25;;;27.28;47.91
63395;BME280;49531;-34.520;150.798;2023-11-19T06:46:38;100707.13;;;27.27;47.82
63395;BME280;49531;-34.520;150.798;2023-11-19T06:49:06;100709.88;;;27.27;47.61
63395;BME280;49531;-34.520;150.798;2023-11-19T06:51:34;100705.91;;;27.33;47.65
63395;BME280;49531;-34.520;150.798;2023-11-19T06:54:01;100706.53;;;27.30;47.83
63395;BME280;49531;-34.520;150.798;2023-11-19T06:56:28;100712.50;;;27.32;47.78
63395;BME280;49531;-34.520;150.798;2023-11-19T06:58:55;100708.44;;;27.29;47.99
63395;BME280;49531;-34.520;150.798;2023-11-19T07:01:22;100707.63;;;27.29;47.95
63395;BME280;49531;-34.520;150.798;2023-11-19T07:03:50;100721.66;;;27.27;48.08
63395;BME280;49531;-34.520;150.798;2023-11-19T07:06:17;100721.03;;;27.30;47.94
63395;BME280;49531;-34.520;150.798;2023-11-19T07:08:44;100728.56;;;27.24;47.95
63395;BME280;49531;-34.520;150.798;2023-11-19T07:11:12;100729.59;;;27.29;48.18
63395;BME280;49531;-34.520;150.798;2023-11-19T07:13:43;100719.31;;;27.20;48.33
63395;BME280;49531;-34.520;150.798;2023-11-19T07:16:14;100718.34;;;27.16;48.34
63395;BME280;49531;-34.520;150.798;2023-11-19T07:18:41;100733.16;;;27.15;48.54
63395;BME280;49531;-34.520;150.798;2023-11-19T07:21:10;100729.63;;;27.15;48.49
63395;BME280;49531;-34.520;150.798;2023-11-19T07:23:37;100738.66;;;27.15;48.63
63395;BME280;49531;-34.520;150.798;2023-11-19T07:26:07;100722.81;;;27.12;48.87
63395;BME280;49531;-34.520;150.798;2023-11-19T07:28:37;100731.34;;;27.11;48.84
63395;BME280;49531;-34.520;150.798;2023-11-19T07:31:06;100720.38;;;27.11;48.99
63395;BME280;49531;-34.520;150.798;2023-11-19T07:33:36;100719.56;;;27.10;48.88
63395;BME280;49531;-34.520;150.798;2023-11-19T07:36:03;100729.72;;;27.10;49.05
63395;BME280;49531;-34.520;150.798;2023-11-19T07:38:31;100725.03;;;27.10;48.95
63395;BME280;49531;-34.520;150.798;2023-11-19T07:40:58;100739.06;;;27.09;49.15
63395;BME280;49531;-34.520;150.798;2023-11-19T07:43:25;100740.25;;;27.03;49.35
63395;BME280;49531;-34.520;150.798;2023-11-19T07:45:52;100747.16;;;27.00;49.46
63395;BME280;49531;-34.520;150.798;2023-11-19T07:48:19;100749.41;;;26.98;49.27
63395;BME280;49531;-34.520;150.798;2023-11-19T07:50:50;100762.28;;;26.98;49.44
63395;BME280;49531;-34.520;150.798;2023-11-19T07:53:17;100766.66;;;26.99;49.19
63395;BME280;49531;-34.520;150.798;2023-11-19T07:55:45;100774.13;;;26.93;49.35
63395;BME280;49531;-34.520;150.798;2023-11-19T07:58:12;100766.41;;;26.95;49.43
63395;BME280;49531;-34.520;150.798;2023-11-19T08:00:39;100779.31;;;26.95;49.43
63395;BME280;49531;-34.520;150.798;2023-11-19T08:03:07;100779.03;;;26.96;49.47
63395;BME280;49531;-34.520;150.798;2023-11-19T08:05:34;100769.84;;;26.87;49.64
63395;BME280;49531;-34.520;150.798;2023-11-19T08:08:01;100774.53;;;26.86;49.79
63395;BME280;49531;-34.520;150.798;2023-11-19T08:10:28;100780.31;;;26.85;49.88
63395;BME280;49531;-34.520;150.798;2023-11-19T08:12:56;100787.41;;;26.86;49.74
63395;BME280;49531;-34.520;150.798;2023-11-19T08:15:23;100785.47;;;26.86;49.66
63395;BME280;49531;-34.520;150.798;2023-11-19T08:17:50;100788.53;;;26.85;49.90
63395;BME280;49531;-34.520;150.798;2023-11-19T08:20:17;100792.38;;;26.84;49.94
63395;BME280;49531;-34.520;150.798;2023-11-19T08:22:44;100800.09;;;26.82;50.06
63395;BME280;49531;-34.520;150.798;2023-11-19T08:25:12;100811.47;;;26.75;50.11
63395;BME280;49531;-34.520;150.798;2023-11-19T08:27:39;100812.88;;;26.73;50.24
63395;BME280;49531;-34.520;150.798;2023-11-19T08:30:06;100815.91;;;26.71;50.00
63395;BME280;49531;-34.520;150.798;2023-11-19T08:32:34;100816.13;;;26.75;50.05
63395;BME280;49531;-34.520;150.798;2023-11-19T08:35:02;100822.22;;;26.72;49.97
63395;BME280;49531;-34.520;150.798;2023-11-19T08:37:29;100840.28;;;26.73;49.95
63395;BME280;49531;-34.520;150.798;2023-11-19T08:39:56;100833.78;;;26.69;50.24
63395;BME280;49531;-34.520;150.798;2023-11-19T08:42:23;100840.88;;;26.70;50.30
63395;BME280;49531;-34.520;150.798;2023-11-19T08:44:50;100850.81;;;26.66;50.17
63395;BME280;49531;-34.520;150.798;2023-11-19T08:47:20;100860.44;;;26.63;50.29
63395;BME280;49531;-34.520;150.798;2023-11-19T08:49:51;100842.16;;;26.58;50.01
63395;BME280;49531;-34.520;150.798;2023-11-19T08:52:19;100844.59;;;26.60;50.46
63395;BME280;49531;-34.520;150.798;2023-11-19T08:54:46;100845.50;;;26.55;50.19
63395;BME280;49531;-34.520;150.798;2023-11-19T08:57:13;100853.19;;;26.53;50.46
63395;BME280;49531;-34.520;150.798;2023-11-19T08:59:40;100866.28;;;26.56;50.23
63395;BME280;49531;-34.520;150.798;2023-11-19T09:02:13;100864.97;;;26.54;50.16
63395;BME280;49531;-34.520;150.798;2023-11-19T09:04:48;100863.63;;;26.51;50.23
63395;BME280;49531;-34.520;150.798;2023-11-19T09:07:14;100871.03;;;26.51;50.45
63395;BME280;49531;-34.520;150.798;2023-11-19T09:09:41;100885.03;;;26.49;50.58
63395;BME280;49531;-34.520;150.798;2023-11-19T09:12:09;100884.00;;;26.45;50.38
63395;BME280;49531;-34.520;150.798;2023-11-19T09:14:36;100892.72;;;26.47;50.29
63395;BME280;49531;-34.520;150.798;2023-11-19T09:17:03;100878.50;;;26.45;50.45
63395;BME280;49531;-34.520;150.798;2023-11-19T09:19:32;100885.09;;;26.44;50.56
63395;BME280;49531;-34.520;150.798;2023-11-19T09:22:02;100879.09;;;26.42;50.31
63395;BME280;49531;-34.520;150.798;2023-11-19T09:24:32;100889.47;;;26.45;50.51
63395;BME280;49531;-34.520;150.798;2023-11-19T09:26:59;100900.41;;;26.45;50.42
63395;BME280;49531;-34.520;150.798;2023-11-19T09:29:26;100907.81;;;26.45;50.31
63395;BME280;49531;-34.520;150.798;2023-11-19T09:31:53;100881.13;;;26.37;50.45
63395;BME280;49531;-34.520;150.798;2023-11-19T09:34:20;100896.13;;;26.39;50.55
63395;BME280;49531;-34.520;150.798;2023-11-19T09:36:47;100902.22;;;26.36;50.54
63395;BME280;49531;-34.520;150.798;2023-11-19T09:39:41;100892.38;;;26.35;50.75
63395;BME280;49531;-34.520;150.798;2023-11-19T09:42:11;100890.22;;;26.32;50.58
63395;BME280;49531;-34.520;150.798;2023-11-19T09:44:39;100896.50;;;26.33;50.68
63395;BME280;49531;-34.520;150.798;2023-11-19T09:47:08;100899.56;;;26.31;50.66
63395;BME280;49531;-34.520;150.798;2023-11-19T09:49:40;100902.03;;;26.28;50.61
63395;BME280;49531;-34.520;150.798;2023-11-19T09:52:07;100909.44;;;26.27;50.71
63395;BME280;49531;-34.520;150.798;2023-11-19T09:54:34;100900.75;;;26.20;50.99
63395;BME280;49531;-34.520;150.798;2023-11-19T09:57:02;100906.47;;;26.23;50.90
63395;BME280;49531;-34.520;150.798;2023-11-19T09:59:30;100903.50;;;26.20;50.74
63395;BME280;49531;-34.520;150.798;2023-11-19T10:01:58;100911.19;;;26.18;51.08
63395;BME280;49531;-34.520;150.798;2023-11-19T10:04:26;100914.44;;;26.20;50.71
63395;BME280;49531;-34.520;150.798;2023-11-19T10:06:56;100927.03;;;26.21;50.95
63395;BME280;49531;-34.520;150.798;2023-11-19T10:09:23;100914.81;;;26.13;51.04
63395;BME280;49531;-34.520;150.798;2023-11-19T10:11:50;100929.25;;;26.19;50.88
63395;BME280;49531;-34.520;150.798;2023-11-19T10:14:22;100936.94;;;26.17;50.64
63395;BME280;49531;-34.520;150.798;2023-11-19T10:16:50;100935.59;;;26.14;50.96
63395;BME280;49531;-34.520;150.798;2023-11-19T10:19:20;100946.84;;;26.13;50.98
63395;BME280;49531;-34.520;150.798;2023-11-19T10:21:48;100938.91;;;26.11;50.87
63395;BME280;49531;-34.520;150.798;2023-11-19T10:24:15;100927.16;;;26.11;51.06
63395;BME280;49531;-34.520;150.798;2023-11-19T10:26:42;100938.69;;;26.08;50.85
63395;BME280;49531;-34.520;150.798;2023-11-19T10:29:12;100925.06;;;26.03;50.86
63395;BME280;49531;-34.520;150.798;2023-11-19T10:31:39;100918.47;;;26.04;50.95
63395;BME280;49531;-34.520;150.798;2023-11-19T10:34:24;100923.38;;;26.07;50.75
63395;BME280;49531;-34.520;150.798;2023-11-19T10:36:52;100926.69;;;26.04;50.98
63395;BME280;49531;-34.520;150.798;2023-11-19T10:39:23;100927.50;;;26.04;50.73
63395;BME280;49531;-34.520;150.798;2023-11-19T10:41:51;100925.06;;;26.03;50.74
63395;BME280;49531;-34.520;150.798;2023-11-19T10:44:34;100932.75;;;26.01;50.97
63395;BME280;49531;-34.520;150.798;2023-11-19T10:47:06;100924.63;;;25.96;50.86
63395;BME280;49531;-34.520;150.798;2023-11-19T10:49:35;100920.78;;;25.97;50.89
63395;BME280;49531;-34.520;150.798;2023-11-19T10:52:03;100935.06;;;25.94;50.86
63395;BME280;49531;-34.520;150.798;2023-11-19T10:54:34;100937.78;;;25.94;50.92
63395;BME280;49531;-34.520;150.798;2023-11-19T10:57:02;100939.19;;;25.91;50.96
63395;BME280;49531;-34.520;150.798;2023-11-19T10:59:31;100944.91;;;25.95;50.92
63395;BME280;49531;-34.520;150.798;2023-11-19T11:02:03;100942.22;;;25.89;50.91
63395;BME280;49531;-34.520;150.798;2023-11-19T11:04:34;100939.53;;;25.84;51.27
63395;BME280;49531;-34.520;150.798;2023-11-19T11:07:06;100941.97;;;25.86;51.00
63395;BME280;49531;-34.520;150.798;2023-11-19T11:09:34;100951.53;;;25.88;50.84
63395;BME280;49531;-34.520;150.798;2023-11-19T11:12:01;100937.63;;;25.85;51.30
63395;BME280;49531;-34.520;150.798;2023-11-19T11:14:29;100933.00;;;25.80;50.89
63395;BME280;49531;-34.520;150.798;2023-11-19T11:16:58;100923.22;;;25.74;51.28
63395;BME280;49531;-34.520;150.798;2023-11-19T11:19:25;100936.84;;;25.79;51.00
63395;BME280;49531;-34.520;150.798;2023-11-19T11:21:55;100932.19;;;25.80;50.92
63395;BME280;49531;-34.520;150.798;2023-11-19T11:24:46;100940.41;;;25.80;50.95
63395;BME280;49531;-34.520;150.798;2023-11-19T11:27:31;100946.16;;;25.78;50.90
63395;BME280;49531;-34.520;150.798;2023-11-19T11:38:24;100947.91;;;25.69;51.39
63395;BME280;49531;-34.520;150.798;2023-11-19T11:41:19;100949.03;;;25.63;51.33
63395;BME280;49531;-34.520;150.798;2023-11-19T11:43:52;100953.16;;;25.60;51.40
63395;BME280;49531;-34.520;150.798;2023-11-19T11:49:05;100957.81;;;25.60;51.37
63395;BME280;49531;-34.520;150.798;2023-11-19T11:54:26;100967.47;;;25.52;51.55
63395;BME280;49531;-34.520;150.798;2023-11-19T11:57:13;100953.50;;;25.54;51.66
63395;BME280;49531;-34.520;150.798;2023-11-19T12:02:11;100950.28;;;25.47;51.50
63395;BME280;49531;-34.520;150.798;2023-11-19T12:04:40;100948.91;;;25.49;51.41
63395;BME280;49531;-34.520;150.798;2023-11-19T12:07:11;100948.91;;;25.49;51.33
63395;BME280;49531;-34.520;150.798;2023-11-19T12:09:45;100954.66;;;25.48;51.17
63395;BME280;49531;-34.520;150.798;2023-11-19T12:12:26;100957.41;;;25.48;51.28
63395;BME280;49531;-34.520;150.798;2023-11-19T12:15:10;100944.00;;;25.46;51.26
63395;BME280;49531;-34.520;150.798;2023-11-19T12:17:42;100947.56;;;25.47;51.09
63395;BME280;49531;-34.520;150.798;2023-11-19T12:20:10;100943.19;;;25.46;50.97
63395;BME280;49531;-34.520;150.798;2023-11-19T12:22:41;100942.72;;;25.39;51.40
63395;BME280;49531;-34.520;150.798;2023-11-19T12:25:10;100951.16;;;25.42;51.10
63395;BME280;49531;-34.520;150.798;2023-11-19T12:27:55;100942.72;;;25.39;51.17
63395;BME280;49531;-34.520;150.798;2023-11-19T12:30:23;100931.53;;;25.35;51.06
63395;BME280;49531;-34.520;150.798;2023-11-19T12:32:52;100936.44;;;25.38;51.13
63395;BME280;49531;-34.520;150.798;2023-11-19T12:35:23;100928.03;;;25.30;51.26
63395;BME280;49531;-34.520;150.798;2023-11-19T12:37:51;100936.47;;;25.33;51.08
63395;BME280;49531;-34.520;150.798;2023-11-19T12:40:20;100925.28;;;25.30;51.37
63395;BME280;49531;-34.520;150.798;2023-11-19T12:42:52;100932.09;;;25.32;51.38
63395;BME280;49531;-34.520;150.798;2023-11-19T12:45:22;100924.47;;;25.29;51.34
63395;BME280;49531;-34.520;150.798;2023-11-19T12:47:50;100925.56;;;25.28;51.27
63395;BME280;49531;-34.520;150.798;2023-11-19T12:50:22;100930.22;;;25.27;51.36
63395;BME280;49531;-34.520;150.798;2023-11-19T12:52:57;100934.06;;;25.26;51.44
63395;BME280;49531;-34.520;150.798;2023-11-19T12:55:27;100929.44;;;25.22;51.39
63395;BME280;49531;-34.520;150.798;2023-11-19T12:57:54;100931.91;;;25.23;51.15
63395;BME280;49531;-34.520;150.798;2023-11-19T13:00:26;100925.34;;;25.24;51.37
63395;BME280;49531;-34.520;150.798;2023-11-19T13:02:56;100915.78;;;25.22;51.23
63395;BME280;49531;-34.520;150.798;2023-11-19T13:05:31;100912.22;;;25.21;51.11